createdAt,value
2018-07-09T00:02:00.281Z,5.73
2018-07-09T00:04:27.406Z,5.40
2018-07-09T00:06:54.864Z,4.42
2018-07-09T00:09:21.374Z,5.50
2018-07-09T00:11:47.840Z,5.50
2018-07-09T00:14:14.328Z,4.23
2018-07-09T00:16:40.892Z,5.23
2018-07-09T00:19:07.388Z,4.97
2018-07-09T00:21:34.582Z,5.50
2018-07-09T00:24:01.008Z,4.92
2018-07-09T00:26:28.077Z,5.33
2018-07-09T00:28:54.551Z,4.60
2018-07-09T00:31:21.024Z,4.80
2018-07-09T00:33:47.460Z,4.43
2018-07-09T00:36:13.910Z,5.20
2018-07-09T00:38:40.636Z,4.80
2018-07-09T00:41:07.112Z,4.53
2018-07-09T00:43:33.592Z,4.73
2018-07-09T00:46:00.074Z,4.77
2018-07-09T00:48:26.568Z,4.40
2018-07-09T00:50:53.088Z,4.60
2018-07-09T00:53:19.580Z,5.05
2018-07-09T00:55:46.257Z,4.57
2018-07-09T00:58:12.732Z,5.50
2018-07-09T01:00:39.226Z,4.93
2018-07-09T01:03:05.720Z,4.97
2018-07-09T01:05:32.206Z,3.98
2018-07-09T01:07:58.768Z,4.63
2018-07-09T01:10:25.219Z,4.70
2018-07-09T01:12:52.206Z,4.40
2018-07-09T01:15:19.944Z,4.93
2018-07-09T01:17:46.418Z,4.70
2018-07-09T01:20:13.586Z,4.80
2018-07-09T01:22:40.064Z,4.70
2018-07-09T01:25:06.515Z,4.80
2018-07-09T01:27:33.013Z,4.53
2018-07-09T01:29:59.490Z,4.10
2018-07-09T01:32:26.470Z,4.53
2018-07-09T01:34:52.923Z,4.30
2018-07-09T01:37:19.382Z,3.97
2018-07-09T01:39:45.922Z,4.30
2018-07-09T01:42:12.414Z,4.25
2018-07-09T01:44:38.925Z,5.08
2018-07-09T01:47:05.382Z,3.77
2018-07-09T01:49:31.993Z,4.50
2018-07-09T01:51:58.513Z,4.53
2018-07-09T01:54:24.977Z,3.87
2018-07-09T01:56:51.483Z,4.15
2018-07-09T01:59:18.025Z,3.83
2018-07-09T02:01:44.555Z,4.00
2018-07-09T02:04:11.026Z,4.00
2018-07-09T02:06:37.485Z,4.10
2018-07-09T02:09:05.321Z,3.90
2018-07-09T02:11:31.817Z,3.33
2018-07-09T02:13:58.275Z,3.80
2018-07-09T02:16:24.774Z,4.10
2018-07-09T02:18:52.400Z,3.50
2018-07-09T02:21:18.881Z,3.73
2018-07-09T02:23:45.377Z,3.50
2018-07-09T02:26:11.939Z,3.58
2018-07-09T02:28:38.564Z,3.90
2018-07-09T02:31:05.201Z,4.00
2018-07-09T02:33:31.760Z,3.20
2018-07-09T02:35:58.344Z,3.90
2018-07-09T02:38:24.949Z,3.47
2018-07-09T02:40:51.443Z,3.20
2018-07-09T02:43:17.946Z,3.77
2018-07-09T02:45:44.438Z,4.00
2018-07-09T02:48:11.077Z,3.90
2018-07-09T02:50:37.539Z,3.53
2018-07-09T02:53:04.034Z,3.67
2018-07-09T02:55:30.518Z,3.30
2018-07-09T02:57:57.110Z,3.80
2018-07-09T03:00:23.704Z,3.10
2018-07-09T03:02:50.154Z,3.70
2018-07-09T03:05:16.748Z,3.70
2018-07-09T03:07:43.188Z,3.30
2018-07-09T03:10:09.704Z,3.33
2018-07-09T03:12:36.146Z,3.17
2018-07-09T03:15:02.706Z,3.50
2018-07-09T03:17:29.390Z,3.35
2018-07-09T03:19:55.883Z,3.52
2018-07-09T03:22:22.417Z,3.53
2018-07-09T03:24:49.020Z,3.67
2018-07-09T03:27:15.556Z,3.33
2018-07-09T03:29:42.103Z,3.30
2018-07-09T03:32:08.594Z,3.27
2018-07-09T03:34:35.322Z,3.47
2018-07-09T03:37:01.830Z,3.42
2018-07-09T03:39:28.329Z,3.57
2018-07-09T03:41:54.925Z,3.43
2018-07-09T03:44:24.456Z,3.23
2018-07-09T03:46:51.132Z,3.50
2018-07-09T03:49:17.649Z,3.20
2018-07-09T03:51:44.458Z,3.30
2018-07-09T03:54:11.041Z,3.57
2018-07-09T03:56:37.641Z,3.50
2018-07-09T03:59:04.259Z,3.70
2018-07-09T04:01:30.731Z,3.77
2018-07-09T04:03:57.393Z,3.27
2018-07-09T04:06:23.865Z,3.63
2018-07-09T04:08:50.499Z,3.00
2018-07-09T04:11:17.005Z,3.03
2018-07-09T04:13:43.535Z,3.67
2018-07-09T04:16:10.122Z,3.00
2018-07-09T04:18:36.897Z,3.22
2018-07-09T04:21:03.540Z,3.33
2018-07-09T04:23:30.189Z,2.80
2018-07-09T04:25:56.854Z,3.33
2018-07-09T04:28:23.402Z,3.27
2018-07-09T04:30:50.535Z,3.47
2018-07-09T04:33:17.379Z,3.52
2018-07-09T04:35:44.203Z,3.50
2018-07-09T04:38:10.835Z,5.30
2018-07-09T04:40:37.419Z,3.07
2018-07-09T04:43:03.921Z,3.30
2018-07-09T04:45:30.389Z,3.37
2018-07-09T04:47:56.855Z,3.43
2018-07-09T04:50:23.319Z,3.20
2018-07-09T04:52:49.853Z,2.90
2018-07-09T04:55:16.365Z,3.35
2018-07-09T04:57:42.885Z,3.90
2018-07-09T05:00:09.565Z,3.30
2018-07-09T05:02:36.080Z,3.50
2018-07-09T05:05:02.667Z,3.27
2018-07-09T05:07:29.272Z,3.27
2018-07-09T05:09:55.755Z,3.12
2018-07-09T05:12:22.226Z,3.53
2018-07-09T05:14:48.749Z,3.43
2018-07-09T05:17:15.324Z,3.17
2018-07-09T05:19:41.929Z,3.47
2018-07-09T05:22:08.391Z,3.37
2018-07-09T05:24:34.883Z,3.47
2018-07-09T05:27:01.413Z,3.60
2018-07-09T05:29:32.201Z,3.90
2018-07-09T05:31:58.852Z,3.80
2018-07-09T05:34:25.313Z,3.67
2018-07-09T05:36:51.905Z,4.13
2018-07-09T05:39:18.432Z,4.20
2018-07-09T05:41:44.936Z,3.93
2018-07-09T05:44:11.987Z,4.03
2018-07-09T05:46:38.543Z,3.80
2018-07-09T05:49:05.253Z,4.00
2018-07-09T05:51:31.843Z,4.05
2018-07-09T05:53:58.299Z,4.13
2018-07-09T05:56:24.961Z,4.20
2018-07-09T05:58:51.705Z,4.13
2018-07-09T06:01:18.284Z,3.97
2018-07-09T06:03:45.304Z,3.97
2018-07-09T06:06:11.809Z,3.67
2018-07-09T06:08:38.464Z,3.90
2018-07-09T06:11:04.994Z,4.30
2018-07-09T06:13:31.503Z,3.67
2018-07-09T06:15:57.944Z,3.47
2018-07-09T06:18:24.578Z,4.47
2018-07-09T06:20:52.926Z,3.60
2018-07-09T06:23:19.397Z,3.43
2018-07-09T06:25:45.984Z,3.75
2018-07-09T06:28:12.658Z,3.43
2018-07-09T06:30:39.333Z,4.10
2018-07-09T06:33:05.865Z,3.83
2018-07-09T06:35:32.427Z,3.23
2018-07-09T06:37:58.949Z,4.27
2018-07-09T06:40:25.477Z,4.00
2018-07-09T06:42:52.026Z,3.67
2018-07-09T06:45:18.550Z,5.67
2018-07-09T06:47:45.134Z,4.00
2018-07-09T06:50:11.603Z,3.87
2018-07-09T06:52:38.175Z,3.93
2018-07-09T06:55:04.734Z,4.33
2018-07-09T06:57:31.747Z,4.25
2018-07-09T06:59:58.196Z,4.30
2018-07-09T07:02:24.645Z,4.58
2018-07-09T07:04:51.200Z,4.23
2018-07-09T07:07:17.660Z,4.07
2018-07-09T07:09:44.600Z,4.80
2018-07-09T07:12:11.117Z,4.50
2018-07-09T07:14:37.580Z,3.70
2018-07-09T07:17:04.079Z,4.17
2018-07-09T07:19:30.535Z,4.20
2018-07-09T07:21:56.991Z,4.30
2018-07-09T07:24:23.448Z,4.43
2018-07-09T07:26:49.992Z,4.08
2018-07-09T07:29:16.470Z,3.97
2018-07-09T07:31:42.925Z,3.87
2018-07-09T07:34:09.466Z,4.37
2018-07-09T07:36:35.928Z,4.05
2018-07-09T07:39:02.648Z,4.05
2018-07-09T07:41:29.125Z,4.37
2018-07-09T07:43:56.320Z,4.20
2018-07-09T07:46:22.816Z,3.90
2018-07-09T07:48:49.308Z,3.60
2018-07-09T07:51:15.794Z,3.93
2018-07-09T07:53:42.267Z,3.90
2018-07-09T07:56:08.810Z,4.40
2018-07-09T07:58:35.330Z,4.10
2018-07-09T08:01:01.853Z,4.17
2018-07-09T08:03:28.340Z,4.17
2018-07-09T08:05:55.523Z,4.00
2018-07-09T08:08:22.004Z,4.00
2018-07-09T08:10:48.508Z,4.27
2018-07-09T08:13:27.980Z,3.80
2018-07-09T08:15:41.722Z,4.60
2018-07-09T08:18:08.138Z,3.70
2018-07-09T08:20:39.372Z,4.30
2018-07-09T08:23:07.455Z,4.20
2018-07-09T08:25:35.660Z,4.00
2018-07-09T08:28:05.025Z,4.60
2018-07-09T08:30:33.001Z,4.03
2018-07-09T08:32:59.659Z,4.17
2018-07-09T08:35:26.138Z,4.03
2018-07-09T08:37:52.672Z,4.28
2018-07-09T08:40:19.100Z,4.23
2018-07-09T08:42:46.280Z,4.83
2018-07-09T08:45:16.981Z,4.50
2018-07-09T08:47:45.873Z,4.37
2018-07-09T08:50:13.928Z,4.20
2018-07-09T08:52:40.781Z,4.20
2018-07-09T08:55:07.238Z,4.03
2018-07-09T08:57:33.713Z,3.98
2018-07-09T09:00:02.457Z,4.62
2018-07-09T09:02:30.260Z,4.33
2018-07-09T09:04:57.412Z,4.27
2018-07-09T09:07:26.888Z,4.23
2018-07-09T09:09:54.408Z,5.00
2018-07-09T09:12:21.171Z,4.83
2018-07-09T09:14:47.680Z,4.73
2018-07-09T09:17:14.247Z,4.08
2018-07-09T09:19:40.758Z,4.40
2018-07-09T09:22:07.335Z,4.17
2018-07-09T09:24:33.823Z,4.60
2018-07-09T09:27:00.463Z,4.90
2018-07-09T09:29:26.911Z,5.10
2018-07-09T09:31:53.392Z,4.28
2018-07-09T09:34:19.876Z,4.83
2018-07-09T09:36:46.420Z,4.80
2018-07-09T09:39:12.956Z,3.97
2018-07-09T09:41:39.450Z,5.03
2018-07-09T09:44:06.414Z,4.42
2018-07-09T09:46:32.897Z,4.43
2018-07-09T09:48:59.380Z,4.47
2018-07-09T09:51:25.852Z,4.50
2018-07-09T09:53:52.420Z,3.90
2018-07-09T09:56:18.864Z,4.53
2018-07-09T09:58:45.428Z,4.37
2018-07-09T10:01:11.992Z,3.98
2018-07-09T10:03:38.451Z,4.27
2018-07-09T10:06:05.044Z,3.90
2018-07-09T10:08:31.529Z,4.00
2018-07-09T10:10:58.002Z,4.23
2018-07-09T10:13:24.487Z,4.47
2018-07-09T10:15:51.896Z,4.40
2018-07-09T10:18:18.367Z,4.03
2018-07-09T10:20:44.810Z,4.20
2018-07-09T10:23:11.559Z,3.80
2018-07-09T10:25:38.214Z,4.10
2018-07-09T10:28:05.205Z,4.33
2018-07-09T10:30:31.700Z,3.90
2018-07-09T10:32:58.146Z,3.80
2018-07-09T10:35:31.670Z,3.53
2018-07-09T10:37:58.123Z,3.83
2018-07-09T10:40:24.610Z,4.00
2018-07-09T10:42:51.088Z,3.50
2018-07-09T10:45:17.554Z,3.67
2018-07-09T10:47:44.107Z,3.37
2018-07-09T10:50:11.046Z,3.53
2018-07-09T10:52:37.541Z,3.23
2018-07-09T10:55:04.002Z,3.13
2018-07-09T10:57:30.588Z,3.47
2018-07-09T10:59:57.145Z,3.55
2018-07-09T11:02:23.604Z,3.40
2018-07-09T11:04:50.095Z,3.77
2018-07-09T11:07:16.636Z,4.10
2018-07-09T11:09:43.208Z,3.17
2018-07-09T11:12:09.679Z,3.35
2018-07-09T11:14:36.149Z,3.20
2018-07-09T11:17:02.758Z,3.33
2018-07-09T11:19:29.257Z,3.47
2018-07-09T11:21:55.719Z,3.23
2018-07-09T11:24:22.188Z,3.65
2018-07-09T11:26:48.641Z,3.40
2018-07-09T11:29:15.097Z,3.70
2018-07-09T11:31:42.021Z,3.37
2018-07-09T11:34:08.522Z,3.40
2018-07-09T11:36:35.019Z,4.15
2018-07-09T11:39:02.256Z,3.10
2018-07-09T11:41:28.720Z,3.53
2018-07-09T11:43:55.427Z,3.20
2018-07-09T11:46:21.931Z,3.75
2018-07-09T11:48:48.498Z,3.67
2018-07-09T11:51:14.945Z,3.40
2018-07-09T11:53:41.376Z,4.07
2018-07-09T11:56:07.866Z,3.45
2018-07-09T11:58:34.448Z,3.10
2018-07-09T12:01:00.897Z,3.57
2018-07-09T12:03:27.389Z,3.40
2018-07-09T12:05:54.409Z,3.20
2018-07-09T12:08:20.927Z,3.07
2018-07-09T12:10:47.385Z,3.60
2018-07-09T12:13:13.829Z,3.17
2018-07-09T12:15:41.313Z,3.40
2018-07-09T12:18:07.797Z,3.30
2018-07-09T12:20:34.833Z,3.30
2018-07-09T12:23:01.380Z,3.50
2018-07-09T12:25:28.401Z,3.20
2018-07-09T12:27:54.915Z,3.58
2018-07-09T12:30:21.393Z,3.40
2018-07-09T12:32:47.857Z,3.73
2018-07-09T12:35:14.319Z,3.07
2018-07-09T12:37:40.782Z,3.50
2018-07-09T12:40:07.265Z,3.07
2018-07-09T12:42:33.737Z,3.37
2018-07-09T12:45:00.223Z,3.70
2018-07-09T12:47:26.708Z,3.15
2018-07-09T12:49:53.185Z,3.53
2018-07-09T12:52:19.631Z,3.40
2018-07-09T12:54:46.141Z,3.15
2018-07-09T12:57:12.647Z,3.17
2018-07-09T12:59:39.149Z,3.47
2018-07-09T13:02:05.654Z,2.87
2018-07-09T13:04:32.120Z,3.17
2018-07-09T13:06:58.618Z,3.60
2018-07-09T13:09:25.087Z,3.50
2018-07-09T13:11:51.580Z,3.67
2018-07-09T13:14:18.051Z,3.50
2018-07-09T13:16:44.499Z,3.47
2018-07-09T13:19:11.014Z,3.70
2018-07-09T13:21:37.473Z,3.93
2018-07-09T13:24:04.183Z,3.43
2018-07-09T13:26:30.669Z,3.27
2018-07-09T13:28:57.620Z,3.98
2018-07-09T13:31:24.076Z,4.00
2018-07-09T13:33:50.550Z,3.70
2018-07-09T13:36:17.008Z,3.90
2018-07-09T13:38:43.442Z,3.80
2018-07-09T13:41:09.881Z,3.57
2018-07-09T13:43:36.342Z,3.40
2018-07-09T13:46:02.814Z,3.27
2018-07-09T13:48:29.258Z,3.83
2018-07-09T13:50:55.750Z,4.77
2018-07-09T13:53:22.217Z,4.07
2018-07-09T13:55:49.171Z,4.08
2018-07-09T13:58:15.612Z,3.77
2018-07-09T14:00:42.088Z,4.28
2018-07-09T14:03:08.582Z,3.50
2018-07-09T14:05:36.748Z,3.40
2018-07-09T14:08:03.204Z,3.12
2018-07-09T14:10:29.700Z,3.67
2018-07-09T14:12:56.148Z,3.37
2018-07-09T14:15:22.616Z,3.57
2018-07-09T14:17:49.052Z,3.90
2018-07-09T14:20:17.449Z,3.37
2018-07-09T14:22:43.952Z,3.40
2018-07-09T14:25:10.438Z,3.63
2018-07-09T14:27:37.448Z,3.80
2018-07-09T14:30:04.195Z,3.17
2018-07-09T14:32:31.041Z,3.10
2018-07-09T14:34:58.132Z,5.17
2018-07-09T14:37:24.691Z,3.90
2018-07-09T14:39:51.446Z,3.50
2018-07-09T14:42:17.928Z,3.67
2018-07-09T14:44:44.408Z,3.17
2018-07-09T14:47:10.915Z,2.80
2018-07-09T14:49:37.417Z,3.35
2018-07-09T14:52:03.922Z,3.17
2018-07-09T14:54:31.132Z,3.53
2018-07-09T14:56:57.640Z,3.37
2018-07-09T14:59:24.120Z,3.77
2018-07-09T15:01:50.714Z,3.23
2018-07-09T15:04:17.254Z,3.30
2018-07-09T15:06:43.707Z,3.20
2018-07-09T15:09:10.205Z,3.23
2018-07-09T15:11:37.167Z,3.37
2018-07-09T15:14:03.631Z,3.10
2018-07-09T15:16:30.084Z,3.20
2018-07-09T15:18:56.561Z,2.87
2018-07-09T15:21:23.106Z,2.83
2018-07-09T15:23:49.621Z,2.80
2018-07-09T15:26:16.127Z,3.20
2018-07-09T15:28:42.631Z,3.20
2018-07-09T15:31:09.093Z,2.67
2018-07-09T15:33:35.631Z,2.80
2018-07-09T15:36:02.185Z,3.10
2018-07-09T15:38:28.677Z,2.97
2018-07-09T15:40:55.133Z,2.77
2018-07-09T15:43:21.610Z,2.73
2018-07-09T15:45:48.130Z,2.67
2018-07-09T15:48:14.609Z,2.73
2018-07-09T15:50:41.095Z,2.90
2018-07-09T15:53:07.577Z,2.90
2018-07-09T15:55:34.077Z,2.80
2018-07-09T15:58:00.548Z,2.80
2018-07-09T16:00:27.039Z,3.00
2018-07-09T16:02:53.515Z,2.90
2018-07-09T16:05:19.974Z,3.10
2018-07-09T16:07:46.422Z,2.90
2018-07-09T16:10:12.909Z,2.60
2018-07-09T16:12:39.519Z,2.50
2018-07-09T16:15:05.975Z,3.02
2018-07-09T16:17:32.468Z,2.92
2018-07-09T16:19:58.955Z,3.30
2018-07-09T16:22:25.505Z,2.67
2018-07-09T16:24:52.245Z,3.50
2018-07-09T16:27:18.728Z,3.03
2018-07-09T16:29:45.283Z,3.67
2018-07-09T16:32:11.772Z,2.90
2018-07-09T16:34:38.327Z,2.93
2018-07-09T16:37:05.846Z,2.33
2018-07-09T16:39:32.336Z,2.50
2018-07-09T16:41:58.797Z,2.47
2018-07-09T16:44:25.280Z,2.67
2018-07-09T16:46:51.873Z,2.27
2018-07-09T16:49:18.449Z,2.50
2018-07-09T16:51:45.577Z,2.23
2018-07-09T16:54:12.029Z,2.20
2018-07-09T16:56:38.506Z,3.23
2018-07-09T16:59:04.988Z,20.27
2018-07-09T17:01:31.952Z,76.00
2018-07-09T17:03:58.563Z,81.07
2018-07-09T17:06:25.060Z,63.40
2018-07-09T17:08:51.536Z,41.25
2018-07-09T17:11:18.106Z,27.27
2018-07-09T17:13:44.967Z,19.77
2018-07-09T17:16:11.457Z,19.03
2018-07-09T17:18:37.955Z,17.03
2018-07-09T17:21:04.970Z,16.07
2018-07-09T17:23:31.449Z,13.53
2018-07-09T17:25:57.922Z,14.00
2018-07-09T17:28:24.384Z,13.17
2018-07-09T17:30:50.880Z,12.60
2018-07-09T17:33:17.350Z,10.17
2018-07-09T17:35:44.628Z,10.37
2018-07-09T17:38:11.148Z,8.90
2018-07-09T17:40:37.648Z,9.20
2018-07-09T17:43:04.130Z,9.30
2018-07-09T17:45:30.663Z,7.67
2018-07-09T17:47:57.182Z,8.30
2018-07-09T17:50:23.643Z,8.40
2018-07-09T17:52:50.144Z,8.27
2018-07-09T17:55:17.374Z,7.00
2018-07-09T17:57:43.881Z,5.97
2018-07-09T18:00:10.472Z,6.03
2018-07-09T18:02:36.996Z,6.35
2018-07-09T18:05:03.591Z,5.45
2018-07-09T18:07:30.080Z,5.00
2018-07-09T18:09:57.057Z,4.53
2018-07-09T18:12:23.523Z,4.67
2018-07-09T18:14:50.056Z,4.60
2018-07-09T18:17:16.688Z,4.83
2018-07-09T18:19:43.211Z,4.70
2018-07-09T18:22:09.734Z,5.37
2018-07-09T18:24:36.227Z,4.83
2018-07-09T18:27:02.763Z,5.53
2018-07-09T18:29:29.234Z,4.90
2018-07-09T18:31:55.792Z,5.13
2018-07-09T18:34:22.408Z,5.10
2018-07-09T18:36:48.862Z,4.20
2018-07-09T18:39:16.197Z,4.13
2018-07-09T18:41:42.735Z,4.57
2018-07-09T18:44:09.266Z,3.80
2018-07-09T18:46:35.945Z,4.92
2018-07-09T18:49:02.739Z,3.98
2018-07-09T18:51:29.223Z,4.65
2018-07-09T18:53:55.726Z,4.20
2018-07-09T18:56:22.179Z,3.67
2018-07-09T18:58:48.686Z,3.70
2018-07-09T19:01:15.257Z,3.53
2018-07-09T19:03:41.917Z,3.70
2018-07-09T19:06:08.360Z,3.08
2018-07-09T19:08:35.350Z,3.30
2018-07-09T19:11:01.937Z,3.50
2018-07-09T19:13:28.430Z,3.70
2018-07-09T19:15:54.919Z,3.00
2018-07-09T19:18:23.671Z,2.93
2018-07-09T19:20:50.163Z,3.23
2018-07-09T19:23:16.646Z,2.93
2018-07-09T19:25:44.380Z,3.20
2018-07-09T19:28:10.947Z,3.23
2018-07-09T19:30:38.061Z,3.20
2018-07-09T19:33:04.583Z,2.87
2018-07-09T19:35:31.124Z,3.00
2018-07-09T19:37:57.912Z,2.58
2018-07-09T19:40:24.597Z,2.40
2018-07-09T19:42:51.123Z,2.60
2018-07-09T19:45:17.596Z,2.40
2018-07-09T19:47:44.123Z,2.10
2018-07-09T19:50:10.549Z,2.40
2018-07-09T19:52:37.163Z,2.30
2018-07-09T19:55:03.711Z,2.65
2018-07-09T19:57:30.194Z,2.42
2018-07-09T19:59:56.676Z,2.50
2018-07-09T20:02:23.153Z,2.10
2018-07-09T20:04:49.626Z,2.10
2018-07-09T20:07:16.107Z,2.55
2018-07-09T20:09:48.173Z,2.20
2018-07-09T20:12:20.212Z,2.50
2018-07-09T20:14:52.532Z,2.00
2018-07-09T20:17:27.376Z,2.53
2018-07-09T20:22:32.817Z,2.20
2018-07-09T20:24:59.914Z,1.90
2018-07-09T20:27:26.369Z,2.17
2018-07-09T20:29:53.094Z,2.37
2018-07-09T20:32:39.634Z,2.00
2018-07-09T20:35:06.249Z,2.37
2018-07-09T20:37:32.756Z,2.47
2018-07-09T20:39:59.250Z,2.30
2018-07-09T20:42:25.856Z,2.37
2018-07-09T20:44:52.514Z,2.33
2018-07-09T20:47:18.997Z,2.17
2018-07-09T20:49:45.508Z,2.43
2018-07-09T20:52:12.071Z,3.30
2018-07-09T20:54:38.578Z,2.60
2018-07-09T20:57:05.057Z,3.85
2018-07-09T20:59:31.574Z,3.90
2018-07-09T21:01:58.021Z,4.90
2018-07-09T21:04:25.430Z,4.23
2018-07-09T21:06:52.378Z,4.15
2018-07-09T21:09:18.934Z,4.60
2018-07-09T21:11:45.481Z,4.58
2018-07-09T21:14:11.984Z,4.33
2018-07-09T21:16:38.900Z,4.30
2018-07-09T21:19:05.376Z,4.57
2018-07-09T21:21:31.878Z,4.03
2018-07-09T21:23:58.793Z,4.77
2018-07-09T21:26:25.327Z,3.83
2018-07-09T21:28:51.870Z,4.43
2018-07-09T21:31:18.322Z,4.73
2018-07-09T21:33:45.135Z,4.70
2018-07-09T21:36:13.017Z,4.70
2018-07-09T21:38:40.430Z,4.40
2018-07-09T21:41:06.912Z,4.00
2018-07-09T21:43:33.419Z,4.57
2018-07-09T21:46:00.509Z,4.30
2018-07-09T21:48:29.778Z,4.70
2018-07-09T21:50:54.488Z,4.43
2018-07-09T21:53:21.761Z,4.10
2018-07-09T21:55:48.205Z,4.20
2018-07-09T21:58:14.685Z,4.57
2018-07-09T22:00:41.260Z,4.65
2018-07-09T22:03:07.742Z,4.23
2018-07-09T22:05:34.296Z,4.10
2018-07-09T22:08:00.788Z,4.23
2018-07-09T22:10:27.272Z,4.27
2018-07-09T22:12:54.118Z,4.30
2018-07-09T22:15:20.760Z,3.55
2018-07-09T22:17:47.252Z,4.30
2018-07-09T22:20:13.712Z,3.80
2018-07-09T22:22:40.229Z,4.87
2018-07-09T22:25:06.843Z,3.90
2018-07-09T22:27:33.988Z,3.50
2018-07-09T22:30:00.485Z,3.97
2018-07-09T22:32:26.965Z,3.53
2018-07-09T22:34:53.784Z,3.37
2018-07-09T22:37:20.826Z,3.83
2018-07-09T22:39:47.301Z,3.43
2018-07-09T22:42:13.770Z,4.33
2018-07-09T22:44:40.284Z,3.93
2018-07-09T22:47:06.817Z,4.20
2018-07-09T22:49:33.345Z,4.30
2018-07-09T22:51:59.815Z,4.00
2018-07-09T22:54:26.281Z,4.03
2018-07-09T22:56:53.277Z,3.52
2018-07-09T22:59:19.749Z,3.60
2018-07-09T23:01:46.217Z,3.73
2018-07-09T23:04:12.656Z,3.72
2018-07-09T23:06:39.240Z,3.80
2018-07-09T23:09:05.723Z,3.53
2018-07-09T23:11:32.192Z,3.83
2018-07-09T23:13:58.756Z,3.60
2018-07-09T23:16:25.927Z,3.92
2018-07-09T23:18:52.421Z,3.40
2018-07-09T23:21:18.919Z,3.60
2018-07-09T23:23:45.959Z,3.40
2018-07-09T23:26:12.479Z,3.87
2018-07-09T23:28:38.943Z,3.00
2018-07-09T23:31:05.467Z,3.07
2018-07-09T23:33:32.347Z,3.13
2018-07-09T23:35:58.813Z,3.40
2018-07-09T23:38:25.349Z,3.47
2018-07-09T23:40:51.859Z,3.23
2018-07-09T23:43:18.369Z,3.23
2018-07-09T23:45:44.833Z,3.55
2018-07-09T23:48:11.318Z,3.30
2018-07-09T23:50:37.736Z,3.10
2018-07-09T23:53:04.277Z,3.67
2018-07-09T23:55:30.780Z,3.47
2018-07-09T23:57:57.327Z,3.47
